Aviation Digital Data Service (ADDS)

Output produced by METARs form (0053 UTC 18 November 2017)
found at http://aviationweather.gov/adds/metars/
 
KDAG 180050Z AUTO 28014G31KT 10SM CLR 19/08 A2998 RMK AO2 PK WND 27039/2356 PRESRR SLP134 T01940078
KDAG 172320Z 1800/1824 26030G40KT P6SM BKN200 
     FM180200 27017KT P6SM SCT250 
     FM180500 VRB05KT P6SM SKC 
     FM182000 05007KT P6SM SKC
       
KEDW 172358Z 29015KT 70SM FEW050 SCT300 17/07 A3002 RMK AO2A PK WND 28033/07 SLP155 T01740066 10206 20174 50000
TAF KEDW 171802Z 1718/1824 24015G25KT 9999 FEW040 BKN250 510009 QNH3000INS 
     BECMG 1719/1720 27025G35KT 9999 BKN250 520009 QNH2995INS 
     BECMG 1800/1801 26012G18KT 9999 SCT250 QNH3003INS 
     BECMG 1804/1805 VRB06KT 9999 SKC QNH3008INS 
     BECMG 1817/1818 02009KT 9999 SKC QNH3000INS TX21/1723Z TN03/1814Z
       
KVCV 180035Z AUTO 27015KT 10SM CLR 17/05 A3006 RMK AO2
KONT 172353Z 25009KT 10SM FEW044 FEW075 SCT200 BKN250 22/12 A3002 RMK AO2 SLP156 T02170122 10228 20189 55004 $
KONT 172338Z 1800/1906 VRB05KT P6SM SCT150
       
KSNA 172353Z 25004KT 10SM FEW031 FEW220 BKN250 20/16 A3003 RMK AO2 SLP167 T02000156 10228 20194 51000
KSNA 172338Z 1800/1824 VRB04KT P6SM SCT150 
     FM181000 VRB04KT P6SM SCT007 
     FM181500 23005KT P6SM SKC
       
KSAN 172351Z 30007KT 10SM FEW020 FEW050 BKN150 BKN220 20/14 A3005 RMK AO2 SLP174 T02000144 10228 20200 50000
KSAN 172338Z 1800/1906 30008KT P6SM BKN150 
     FM180100 VRB04KT P6SM BKN150 
     FM181000 VRB04KT P6SM BKN010 
     FM181500 VRB04KT P6SM SCT010 
     FM182000 30008KT P6SM SKC 
     FM190100 VRB04KT P6SM SKC
       
KNID 172356Z AUTO 26008G16KT 10SM CLR 22/M03 A2992 RMK AO2 PK WND 22028/2259 SLP120 T02221028 10239 20206 55009
KNXP 172356Z AUTO 29018KT 10SM CLR 23/06 A3002 RMK AO2 PK WND 30026/2257 SLP137 T02280056 10244 20217 55004
TAF KNXP 1721/1821 30015G25KT 9999 BKN150 QNH3000INS 
     BECMG 1723/1801 33012KT 9999 FEW150 QNH3000INS T24/1722Z T10/1814Z
       
KPSP 172353Z 23003KT 10SM CLR 26/11 A2991 RMK AO2 SLP128 T02560106 10272 20233 56014
KPSP 172338Z 1800/1824 33010KT P6SM BKN150 
     FM180600 VRB05KT P6SM SCT150 
     FM180900 02010KT P6SM SKC 
     FM181500 VRB05KT P6SM SKC
       
KLAX 172353Z 25010KT 10SM FEW010 FEW060 SCT120 19/16 A3003 RMK AO2 SLP165 T01890156 10211 20189 56005
KLAX 172343Z 1800/1906 26012KT P6SM FEW010 FEW060 
     FM180200 27008KT P6SM FEW010 
     FM180600 03005KT P6SM SCT010 
     FM181600 27005KT P6SM SCT250 
     FM182000 27010KT P6SM SCT250 
     FM190300 26005KT P6SM SCT250
       
KCNO 172353Z 23010KT 10SM FEW080 SCT150 22/13 A3003 RMK AO2 SLP165 T02220133 10250 20206 55003
KSMO 172351Z 21008KT 10SM CLR 19/16 A3002 RMK AO2 SLP165 T01890156 10200 20183 56005
KSMO 172359Z 1800/1824 22007KT P6SM FEW010 FEW060 
     FM180200 VRB03KT P6SM FEW010 
     FM181800 23007KT P6SM SCT250
       
KLGB 172353Z 28010KT 10SM CLR 21/14 A3002 RMK AO2 SLP164 T02110144 10233 20200 55002
KLGB 172343Z 1800/1824 29009KT P6SM FEW010 FEW060 
     FM180500 VRB03KT P6SM SCT010 
     FM181000 VRB03KT P6SM BKN010 
     FM181600 30009KT P6SM SCT250
       
KVNY 172351Z 29006KT 10SM CLR 22/12 A3001 RMK AO2 SLP155 T02170117 10233 20194 56004
KVNY 172359Z 1800/1824 34007KT P6SM FEW040 
     FM181600 35012KT P6SM SCT250
       
KBUR 172353Z 20006KT 10SM CLR 22/15 A3001 RMK AO2 SLP151 T02170150 10233 20194 55003
KBUR 172343Z 1800/1824 19008KT P6SM SCT040 
     FM180400 34004KT P6SM FEW040 
     FM182200 18006KT P6SM SCT250
       
KBFL 172354Z VRB04KT 10SM OVC023 16/09 A3012 RMK AO2 SLP197 60000 T01610094 10167 20139 56008
KBFL 172322Z 1800/1824 34010KT P6SM BKN040 
     FM180300 05004KT P6SM SCT050 
     FM181300 VRB03KT 5SM BR SCT050 
     FM181800 VRB05KT P6SM SCT100
       
KPMD 172353Z AUTO 29018KT 10SM CLR 17/08 A3006 RMK AO2 PK WND 32033/2313 SLP163 T01720078 10206 20172 58004 TSNO
KPMD 180002Z 1800/1824 28020G28KT P6SM FEW035 
     FM180230 28010KT P6SM SKC 
     FM180500 27005KT P6SM SKC 
     FM181800 04010KT P6SM SCT250
       
KOXR 172351Z AUTO 27009KT 10SM CLR 19/14 A3001 RMK AO2 SLP163 T01890139 10200 20172 55007
KOXR 172359Z 1800/1824 28010KT P6SM FEW060 
     FM180300 31005KT P6SM SKC 
     FM180800 05006KT P6SM SKC WS015/05035KT 
     FM181400 05012G20KT P6SM SCT250 
     FM182200 29010KT P6SM SCT250
       
KWJF 172356Z 28016G23KT 10SM CLR 17/07 A3005 RMK AO2 SLP170 T01670072 10200 20167 58002
KWJF 180004Z 1800/1824 28017G25KT P6SM FEW035 
     FM180230 28010KT P6SM SKC 
     FM180700 29005KT P6SM SKC 
     FM181700 06010KT P6SM SCT250
       
KCMA 172355Z 26013KT 10SM CLR 21/13 A3001 RMK AO2 SLP170 T02060133 10222 20200 56007 $
KCMA 172359Z 1800/1824 25010KT P6SM FEW060 
     FM180300 VRB03KT P6SM SKC 
     FM180700 06006KT P6SM SKC WS015/05035KT 
     FM181500 07014G22KT P6SM SCT250 
     FM182100 27010KT P6SM SCT250
       
KFAT 172353Z 32010KT 10SM FEW040 17/05 A3012 RMK AO2 SLP197 CU TPG MTNS DSNT N-E-SE T01670050 10178 20139 58006
KFAT 172322Z 1800/1824 31010KT P6SM SCT040 
     FM180300 32004KT P6SM SKC 
     FM181000 VRB03KT 5SM BR SKC 
     TEMPO 1813/1817 2SM BR 
     FM182000 VRB04KT P6SM SKC
       
KEED 172356Z AUTO 24009KT 10SM CLR 27/06 A2990 RMK AO2 SLP099 T02720056 10278 20228 55003 $
KEED 172320Z 1800/1824 23012KT P6SM FEW100 BKN150 
     FM180200 32010KT P6SM FEW150 
     FM180500 36018G28KT P6SM SKC
       
KLSV 172358Z AUTO 22016KT 10SM CLR 24/04 A2984 RMK AO2 SLP088 T02430036 10247 20215 50008 $
TAF KLSV 172300Z 1723/1905 19015G25KT 9999 SCT250 520009 QNH2980INS 
     TEMPO 1723/1803 22025G35KT 530009 
     BECMG 1802/1803 36012G20KT 9999 SCT250 520009 QNH2992INS 
     TEMPO 1803/1809 33020G30KT 
     BECMG 1808/1809 33012KT 9999 FEW250 QNH3015INS 
     BECMG 1817/1818 04009KT 9999 FEW250 QNH3019INS TX27/1723Z TN09/1813Z
       
KLAS 172356Z 25013G19KT 10SM FEW090 SCT150 BKN250 24/03 A2987 RMK AO2 SLP095 ACSL S T02390033 10250 20211 53005
KLAS 172320Z 1800/1906 27015G25KT P6SM FEW080 SCT200 
     FM180100 35014G23KT P6SM FEW080 SCT200 
     FM180300 36010KT P6SM FEW200 
     FM181200 02010KT P6SM SKC 
     FM190000 VRB05KT P6SM SKC
       
KHII 180035Z AUTO 15008KT 10SM CLR 24/03 A2990 RMK AO2
KIFP 180035Z 23007KT 10SM CLR 26/05 A2988 RMK AO2
KIFP 172320Z 1800/1824 19013G21KT P6SM FEW100 BKN150 
     FM180300 36014G24KT P6SM FEW150 
     FM180500 01028G38KT P6SM SKC 
     FM182200 36018G28KT P6SM SKC